sensor_id;sensor_type;location;lat;lon;timestamp;temperature;humidity
45803;DHT22;31504;51.716;9.184;2023-04-03T00:00:14;18.30;49.50
45803;DHT22;31504;51.716;9.184;2023-04-03T00:03:15;18.30;49.50
45803;DHT22;31504;51.716;9.184;2023-04-03T00:06:15;18.30;49.70
45803;DHT22;31504;51.716;9.184;2023-04-03T00:09:16;18.30;49.60
45803;DHT22;31504;51.716;9.184;2023-04-03T00:12:16;18.30;49.70
45803;DHT22;31504;51.716;9.184;2023-04-03T00:15:17;18.30;49.80
45803;DHT22;31504;51.716;9.184;2023-04-03T00:18:17;18.30;49.50
45803;DHT22;31504;51.716;9.184;2023-04-03T00:21:18;18.30;49.50
45803;DHT22;31504;51.716;9.184;2023-04-03T00:24:18;18.30;49.50
45803;DHT22;31504;51.716;9.184;2023-04-03T00:27:19;18.30;49.60
45803;DHT22;31504;51.716;9.184;2023-04-03T00:30:20;18.30;49.50
45803;DHT22;31504;51.716;9.184;2023-04-03T00:33:21;18.30;49.50
45803;DHT22;31504;51.716;9.184;2023-04-03T00:36:24;18.30;49.60
45803;DHT22;31504;51.716;9.184;2023-04-03T00:39:25;18.30;49.60
45803;DHT22;31504;51.716;9.184;2023-04-03T00:42:26;18.30;49.80
45803;DHT22;31504;51.716;9.184;2023-04-03T00:45:35;18.30;49.50
45803;DHT22;31504;51.716;9.184;2023-04-03T00:48:40;18.30;49.60
45803;DHT22;31504;51.716;9.184;2023-04-03T00:51:42;18.30;49.60
45803;DHT22;31504;51.716;9.184;2023-04-03T00:54:42;18.30;49.50
45803;DHT22;31504;51.716;9.184;2023-04-03T00:57:43;18.30;49.50
45803;DHT22;31504;51.716;9.184;2023-04-03T01:00:46;18.30;49.60
45803;DHT22;31504;51.716;9.184;2023-04-03T01:03:48;18.30;49.40
45803;DHT22;31504;51.716;9.184;2023-04-03T01:06:48;18.30;49.50
45803;DHT22;31504;51.716;9.184;2023-04-03T01:09:50;18.30;49.60
45803;DHT22;31504;51.716;9.184;2023-04-03T01:12:51;18.30;49.50
45803;DHT22;31504;51.716;9.184;2023-04-03T01:15:52;18.30;49.60
45803;DHT22;31504;51.716;9.184;2023-04-03T01:18:53;18.30;49.50
45803;DHT22;31504;51.716;9.184;2023-04-03T01:22:01;18.30;49.50
45803;DHT22;31504;51.716;9.184;2023-04-03T01:25:05;18.30;49.50
45803;DHT22;31504;51.716;9.184;2023-04-03T01:28:07;18.30;49.40
45803;DHT22;31504;51.716;9.184;2023-04-03T01:31:27;18.30;49.50
45803;DHT22;31504;51.716;9.184;2023-04-03T01:34:28;18.30;49.30
45803;DHT22;31504;51.716;9.184;2023-04-03T01:37:29;18.30;49.60
45803;DHT22;31504;51.716;9.184;2023-04-03T01:40:29;18.30;49.40
45803;DHT22;31504;51.716;9.184;2023-04-03T01:43:30;18.30;49.40
45803;DHT22;31504;51.716;9.184;2023-04-03T01:46:30;18.30;49.50
45803;DHT22;31504;51.716;9.184;2023-04-03T01:49:31;18.30;49.40
45803;DHT22;31504;51.716;9.184;2023-04-03T01:52:31;18.30;49.40
45803;DHT22;31504;51.716;9.184;2023-04-03T01:55:32;18.30;49.40
45803;DHT22;31504;51.716;9.184;2023-04-03T01:58:32;18.30;49.50
45803;DHT22;31504;51.716;9.184;2023-04-03T02:01:32;18.30;49.60
45803;DHT22;31504;51.716;9.184;2023-04-03T02:04:33;18.30;49.40
45803;DHT22;31504;51.716;9.184;2023-04-03T02:07:33;18.30;49.70
45803;DHT22;31504;51.716;9.184;2023-04-03T02:10:34;18.30;49.50
45803;DHT22;31504;51.716;9.184;2023-04-03T02:13:34;18.30;49.40
45803;DHT22;31504;51.716;9.184;2023-04-03T02:16:35;18.20;49.40
45803;DHT22;31504;51.716;9.184;2023-04-03T02:19:35;18.30;49.40
45803;DHT22;31504;51.716;9.184;2023-04-03T02:22:36;18.30;49.40
45803;DHT22;31504;51.716;9.184;2023-04-03T02:25:36;18.20;49.30
45803;DHT22;31504;51.716;9.184;2023-04-03T02:28:37;18.20;49.40
45803;DHT22;31504;51.716;9.184;2023-04-03T02:31:37;18.20;49.30
45803;DHT22;31504;51.716;9.184;2023-04-03T02:34:38;18.20;49.20
45803;DHT22;31504;51.716;9.184;2023-04-03T02:37:38;18.20;49.30
45803;DHT22;31504;51.716;9.184;2023-04-03T02:40:39;18.20;49.20
45803;DHT22;31504;51.716;9.184;2023-04-03T02:43:39;18.20;49.20
45803;DHT22;31504;51.716;9.184;2023-04-03T02:46:40;18.20;49.20
45803;DHT22;31504;51.716;9.184;2023-04-03T02:49:40;18.20;49.20
45803;DHT22;31504;51.716;9.184;2023-04-03T02:52:41;18.20;49.20
45803;DHT22;31504;51.716;9.184;2023-04-03T02:55:41;18.20;49.20
45803;DHT22;31504;51.716;9.184;2023-04-03T02:58:42;18.20;49.20
45803;DHT22;31504;51.716;9.184;2023-04-03T03:01:42;18.20;49.20
45803;DHT22;31504;51.716;9.184;2023-04-03T03:04:42;18.20;49.20
45803;DHT22;31504;51.716;9.184;2023-04-03T03:07:43;18.20;49.40
45803;DHT22;31504;51.716;9.184;2023-04-03T03:10:44;18.20;49.30
45803;DHT22;31504;51.716;9.184;2023-04-03T03:13:44;18.20;49.20
45803;DHT22;31504;51.716;9.184;2023-04-03T03:16:44;18.20;49.40
45803;DHT22;31504;51.716;9.184;2023-04-03T03:19:45;18.20;49.90
45803;DHT22;31504;51.716;9.184;2023-04-03T03:22:46;18.20;49.20
45803;DHT22;31504;51.716;9.184;2023-04-03T03:25:46;18.20;49.30
45803;DHT22;31504;51.716;9.184;2023-04-03T03:28:47;18.20;49.20
45803;DHT22;31504;51.716;9.184;2023-04-03T03:31:47;18.20;49.20
45803;DHT22;31504;51.716;9.184;2023-04-03T03:34:47;18.20;49.20
45803;DHT22;31504;51.716;9.184;2023-04-03T03:37:48;18.20;49.10
45803;DHT22;31504;51.716;9.184;2023-04-03T03:40:49;18.20;49.30
45803;DHT22;31504;51.716;9.184;2023-04-03T03:43:49;18.20;49.20
45803;DHT22;31504;51.716;9.184;2023-04-03T03:46:50;18.20;49.10
45803;DHT22;31504;51.716;9.184;2023-04-03T03:49:50;18.20;49.20
45803;DHT22;31504;51.716;9.184;2023-04-03T03:52:51;18.20;49.10
45803;DHT22;31504;51.716;9.184;2023-04-03T03:55:51;18.20;49.00
45803;DHT22;31504;51.716;9.184;2023-04-03T03:58:52;18.10;49.00
45803;DHT22;31504;51.716;9.184;2023-04-03T04:01:52;18.20;49.10
45803;DHT22;31504;51.716;9.184;2023-04-03T04:04:53;18.20;49.10
45803;DHT22;31504;51.716;9.184;2023-04-03T04:07:53;18.10;49.00
45803;DHT22;31504;51.716;9.184;2023-04-03T04:10:54;18.20;49.00
45803;DHT22;31504;51.716;9.184;2023-04-03T04:13:54;18.20;49.10
45803;DHT22;31504;51.716;9.184;2023-04-03T04:16:55;18.20;49.00
45803;DHT22;31504;51.716;9.184;2023-04-03T04:19:55;18.10;49.00
45803;DHT22;31504;51.716;9.184;2023-04-03T04:22:56;18.10;48.90
45803;DHT22;31504;51.716;9.184;2023-04-03T04:25:56;18.20;49.00
45803;DHT22;31504;51.716;9.184;2023-04-03T04:28:57;18.10;48.90
45803;DHT22;31504;51.716;9.184;2023-04-03T04:31:57;18.10;49.00
45803;DHT22;31504;51.716;9.184;2023-04-03T04:34:57;18.10;48.90
45803;DHT22;31504;51.716;9.184;2023-04-03T04:37:58;18.10;48.90
45803;DHT22;31504;51.716;9.184;2023-04-03T04:40:58;18.10;49.00
45803;DHT22;31504;51.716;9.184;2023-04-03T04:43:59;18.20;49.00
45803;DHT22;31504;51.716;9.184;2023-04-03T04:46:59;18.20;49.60
45803;DHT22;31504;51.716;9.184;2023-04-03T04:50:00;18.10;49.10
45803;DHT22;31504;51.716;9.184;2023-04-03T04:53:00;18.20;49.00
45803;DHT22;31504;51.716;9.184;2023-04-03T04:56:00;18.10;48.90
45803;DHT22;31504;51.716;9.184;2023-04-03T04:59:01;18.10;48.90
45803;DHT22;31504;51.716;9.184;2023-04-03T05:02:01;18.10;48.90
45803;DHT22;31504;51.716;9.184;2023-04-03T05:05:02;18.10;48.90
45803;DHT22;31504;51.716;9.184;2023-04-03T05:08:03;18.10;48.90
45803;DHT22;31504;51.716;9.184;2023-04-03T05:11:03;18.10;48.90
45803;DHT22;31504;51.716;9.184;2023-04-03T05:14:03;18.10;48.80
45803;DHT22;31504;51.716;9.184;2023-04-03T05:17:06;18.10;48.90
45803;DHT22;31504;51.716;9.184;2023-04-03T05:20:07;18.10;48.90
45803;DHT22;31504;51.716;9.184;2023-04-03T05:23:07;18.10;48.90
45803;DHT22;31504;51.716;9.184;2023-04-03T05:26:08;18.10;48.80
45803;DHT22;31504;51.716;9.184;2023-04-03T05:29:08;18.10;48.80
45803;DHT22;31504;51.716;9.184;2023-04-03T05:32:09;18.10;48.80
45803;DHT22;31504;51.716;9.184;2023-04-03T05:35:10;18.10;48.90
45803;DHT22;31504;51.716;9.184;2023-04-03T05:38:11;18.10;48.70
45803;DHT22;31504;51.716;9.184;2023-04-03T05:41:12;18.10;48.80
45803;DHT22;31504;51.716;9.184;2023-04-03T05:44:12;18.00;48.70
45803;DHT22;31504;51.716;9.184;2023-04-03T05:47:13;18.10;48.80
45803;DHT22;31504;51.716;9.184;2023-04-03T05:50:13;18.10;48.60
45803;DHT22;31504;51.716;9.184;2023-04-03T05:53:25;18.10;48.70
45803;DHT22;31504;51.716;9.184;2023-04-03T05:56:26;18.10;48.60
45803;DHT22;31504;51.716;9.184;2023-04-03T05:59:27;18.10;48.70
45803;DHT22;31504;51.716;9.184;2023-04-03T06:02:27;18.10;48.80
45803;DHT22;31504;51.716;9.184;2023-04-03T06:05:28;18.10;48.60
45803;DHT22;31504;51.716;9.184;2023-04-03T06:08:28;18.10;48.70
45803;DHT22;31504;51.716;9.184;2023-04-03T06:11:29;18.10;48.60
45803;DHT22;31504;51.716;9.184;2023-04-03T06:14:30;18.00;48.80
45803;DHT22;31504;51.716;9.184;2023-04-03T06:17:30;18.10;48.60
45803;DHT22;31504;51.716;9.184;2023-04-03T06:20:31;18.00;48.60
45803;DHT22;31504;51.716;9.184;2023-04-03T06:23:31;18.00;48.60
45803;DHT22;31504;51.716;9.184;2023-04-03T06:26:33;18.10;48.60
45803;DHT22;31504;51.716;9.184;2023-04-03T06:29:33;18.00;48.50
45803;DHT22;31504;51.716;9.184;2023-04-03T06:32:34;18.10;48.60
45803;DHT22;31504;51.716;9.184;2023-04-03T06:35:34;18.00;48.50
45803;DHT22;31504;51.716;9.184;2023-04-03T06:38:35;18.10;48.50
45803;DHT22;31504;51.716;9.184;2023-04-03T06:41:35;18.10;48.70
45803;DHT22;31504;51.716;9.184;2023-04-03T06:44:36;18.10;48.50
45803;DHT22;31504;51.716;9.184;2023-04-03T06:47:37;18.10;48.70
45803;DHT22;31504;51.716;9.184;2023-04-03T06:50:37;18.10;48.40
45803;DHT22;31504;51.716;9.184;2023-04-03T06:53:37;18.10;48.60
45803;DHT22;31504;51.716;9.184;2023-04-03T06:56:38;18.00;48.50
45803;DHT22;31504;51.716;9.184;2023-04-03T06:59:38;18.00;48.40
45803;DHT22;31504;51.716;9.184;2023-04-03T07:02:39;18.00;48.50
45803;DHT22;31504;51.716;9.184;2023-04-03T07:05:39;18.00;48.60
45803;DHT22;31504;51.716;9.184;2023-04-03T07:08:40;18.00;49.10
45803;DHT22;31504;51.716;9.184;2023-04-03T07:11:40;18.00;48.50
45803;DHT22;31504;51.716;9.184;2023-04-03T07:14:41;18.00;48.50
45803;DHT22;31504;51.716;9.184;2023-04-03T07:17:41;18.00;48.50
45803;DHT22;31504;51.716;9.184;2023-04-03T07:20:42;18.00;48.50
45803;DHT22;31504;51.716;9.184;2023-04-03T07:23:42;18.00;48.50
45803;DHT22;31504;51.716;9.184;2023-04-03T07:26:43;18.00;48.50
45803;DHT22;31504;51.716;9.184;2023-04-03T07:29:45;18.00;48.50
45803;DHT22;31504;51.716;9.184;2023-04-03T07:32:48;18.00;48.50
45803;DHT22;31504;51.716;9.184;2023-04-03T07:35:48;18.00;48.50
45803;DHT22;31504;51.716;9.184;2023-04-03T07:38:49;18.00;48.50
45803;DHT22;31504;51.716;9.184;2023-04-03T07:41:49;18.00;48.50
45803;DHT22;31504;51.716;9.184;2023-04-03T07:44:50;17.90;48.50
45803;DHT22;31504;51.716;9.184;2023-04-03T07:47:50;17.90;48.50
45803;DHT22;31504;51.716;9.184;2023-04-03T07:50:51;17.90;48.50
45803;DHT22;31504;51.716;9.184;2023-04-03T07:53:52;17.90;48.50
45803;DHT22;31504;51.716;9.184;2023-04-03T07:56:52;17.90;48.50
45803;DHT22;31504;51.716;9.184;2023-04-03T07:59:53;17.90;48.50
45803;DHT22;31504;51.716;9.184;2023-04-03T08:02:54;17.90;48.50
45803;DHT22;31504;51.716;9.184;2023-04-03T08:05:54;17.90;48.60
45803;DHT22;31504;51.716;9.184;2023-04-03T08:08:55;17.90;48.50
45803;DHT22;31504;51.716;9.184;2023-04-03T08:11:56;17.90;48.50
45803;DHT22;31504;51.716;9.184;2023-04-03T08:14:56;17.90;48.50
45803;DHT22;31504;51.716;9.184;2023-04-03T08:17:57;17.90;48.50
45803;DHT22;31504;51.716;9.184;2023-04-03T08:20:58;17.90;48.50
45803;DHT22;31504;51.716;9.184;2023-04-03T08:23:58;17.90;48.50
45803;DHT22;31504;51.716;9.184;2023-04-03T08:26:59;17.90;48.50
45803;DHT22;31504;51.716;9.184;2023-04-03T08:30:00;17.90;48.40
45803;DHT22;31504;51.716;9.184;2023-04-03T08:33:03;17.90;48.50
45803;DHT22;31504;51.716;9.184;2023-04-03T08:36:04;17.90;48.50
45803;DHT22;31504;51.716;9.184;2023-04-03T08:39:04;17.90;48.50
45803;DHT22;31504;51.716;9.184;2023-04-03T08:42:05;17.90;47.70
45803;DHT22;31504;51.716;9.184;2023-04-03T08:45:15;18.00;42.50
45803;DHT22;31504;51.716;9.184;2023-04-03T08:48:24;18.30;43.40
45803;DHT22;31504;51.716;9.184;2023-04-03T08:51:27;18.40;43.60
45803;DHT22;31504;51.716;9.184;2023-04-03T08:54:29;18.40;43.40
45803;DHT22;31504;51.716;9.184;2023-04-03T08:57:35;18.40;43.70
45803;DHT22;31504;51.716;9.184;2023-04-03T09:00:46;18.40;42.80
45803;DHT22;31504;51.716;9.184;2023-04-03T09:03:47;18.50;45.00
45803;DHT22;31504;51.716;9.184;2023-04-03T09:06:53;18.40;43.20
45803;DHT22;31504;51.716;9.184;2023-04-03T09:09:54;18.50;43.70
45803;DHT22;31504;51.716;9.184;2023-04-03T09:12:59;18.60;43.40
45803;DHT22;31504;51.716;9.184;2023-04-03T09:16:01;18.60;42.40
45803;DHT22;31504;51.716;9.184;2023-04-03T09:19:21;18.70;42.60
45803;DHT22;31504;51.716;9.184;2023-04-03T09:22:25;18.60;43.30
45803;DHT22;31504;51.716;9.184;2023-04-03T09:25:32;18.60;42.80
45803;DHT22;31504;51.716;9.184;2023-04-03T09:28:35;18.60;42.50
45803;DHT22;31504;51.716;9.184;2023-04-03T09:31:38;18.60;42.30
45803;DHT22;31504;51.716;9.184;2023-04-03T09:34:39;18.60;42.20
45803;DHT22;31504;51.716;9.184;2023-04-03T09:37:42;18.60;42.80
45803;DHT22;31504;51.716;9.184;2023-04-03T09:40:50;18.60;41.80
45803;DHT22;31504;51.716;9.184;2023-04-03T09:43:52;18.70;42.80
45803;DHT22;31504;51.716;9.184;2023-04-03T09:46:53;18.70;42.10
45803;DHT22;31504;51.716;9.184;2023-04-03T09:50:36;18.80;41.50
45803;DHT22;31504;51.716;9.184;2023-04-03T09:56:39;18.80;42.00
45803;DHT22;31504;51.716;9.184;2023-04-03T09:59:57;18.80;41.70
45803;DHT22;31504;51.716;9.184;2023-04-03T10:03:01;18.80;41.50
45803;DHT22;31504;51.716;9.184;2023-04-03T10:06:03;18.80;41.30
45803;DHT22;31504;51.716;9.184;2023-04-03T10:09:06;18.80;41.20
45803;DHT22;31504;51.716;9.184;2023-04-03T10:12:07;18.80;41.70
45803;DHT22;31504;51.716;9.184;2023-04-03T10:15:12;18.80;41.50
45803;DHT22;31504;51.716;9.184;2023-04-03T10:18:18;18.80;41.90
45803;DHT22;31504;51.716;9.184;2023-04-03T10:21:29;18.70;41.60
45803;DHT22;31504;51.716;9.184;2023-04-03T10:24:50;18.80;41.60
45803;DHT22;31504;51.716;9.184;2023-04-03T10:34:17;18.90;41.50
45803;DHT22;31504;51.716;9.184;2023-04-03T10:43:52;19.20;40.30
45803;DHT22;31504;51.716;9.184;2023-04-03T10:56:40;18.80;36.00
45803;DHT22;31504;51.716;9.184;2023-04-03T10:59:49;18.80;34.50
45803;DHT22;31504;51.716;9.184;2023-04-03T11:02:57;18.70;35.70
45803;DHT22;31504;51.716;9.184;2023-04-03T11:05:59;18.60;35.70
45803;DHT22;31504;51.716;9.184;2023-04-03T11:09:02;18.70;37.00
45803;DHT22;31504;51.716;9.184;2023-04-03T11:12:05;18.70;38.20
45803;DHT22;31504;51.716;9.184;2023-04-03T11:15:11;18.80;36.00
45803;DHT22;31504;51.716;9.184;2023-04-03T11:18:14;18.90;37.30
45803;DHT22;31504;51.716;9.184;2023-04-03T11:24:26;18.90;37.00
45803;DHT22;31504;51.716;9.184;2023-04-03T11:27:27;19.00;37.00
45803;DHT22;31504;51.716;9.184;2023-04-03T11:33:58;18.90;37.60
45803;DHT22;31504;51.716;9.184;2023-04-03T11:37:01;18.90;38.10
45803;DHT22;31504;51.716;9.184;2023-04-03T11:40:06;19.00;37.90
45803;DHT22;31504;51.716;9.184;2023-04-03T11:43:26;18.90;38.00
45803;DHT22;31504;51.716;9.184;2023-04-03T11:49:50;18.90;38.30
45803;DHT22;31504;51.716;9.184;2023-04-03T11:55:52;18.80;39.70
45803;DHT22;31504;51.716;9.184;2023-04-03T12:02:13;18.80;39.10
45803;DHT22;31504;51.716;9.184;2023-04-03T12:05:27;18.70;40.20
45803;DHT22;31504;51.716;9.184;2023-04-03T12:11:30;18.80;39.60
45803;DHT22;31504;51.716;9.184;2023-04-03T12:14:30;18.90;39.30
45803;DHT22;31504;51.716;9.184;2023-04-03T12:17:31;19.00;39.20
45803;DHT22;31504;51.716;9.184;2023-04-03T12:27:05;19.00;39.30
45803;DHT22;31504;51.716;9.184;2023-04-03T12:33:17;19.00;39.20
45803;DHT22;31504;51.716;9.184;2023-04-03T12:36:26;19.00;39.10
45803;DHT22;31504;51.716;9.184;2023-04-03T12:39:44;19.00;39.60
45803;DHT22;31504;51.716;9.184;2023-04-03T12:49:14;19.10;39.10
45803;DHT22;31504;51.716;9.184;2023-04-03T12:52:22;19.10;38.40
45803;DHT22;31504;51.716;9.184;2023-04-03T12:55:25;18.90;37.00
45803;DHT22;31504;51.716;9.184;2023-04-03T12:58:27;18.80;36.90
45803;DHT22;31504;51.716;9.184;2023-04-03T13:01:28;18.90;37.00
45803;DHT22;31504;51.716;9.184;2023-04-03T13:04:29;18.90;36.90
45803;DHT22;31504;51.716;9.184;2023-04-03T13:07:34;18.90;37.30
45803;DHT22;31504;51.716;9.184;2023-04-03T13:10:47;18.80;37.60
45803;DHT22;31504;51.716;9.184;2023-04-03T13:13:56;18.80;37.90
45803;DHT22;31504;51.716;9.184;2023-04-03T13:16:58;18.80;37.90
45803;DHT22;31504;51.716;9.184;2023-04-03T13:20:09;18.80;38.20
45803;DHT22;31504;51.716;9.184;2023-04-03T13:23:10;18.80;38.30
45803;DHT22;31504;51.716;9.184;2023-04-03T13:26:12;18.80;38.50
45803;DHT22;31504;51.716;9.184;2023-04-03T13:29:27;18.80;38.50
45803;DHT22;31504;51.716;9.184;2023-04-03T13:32:28;18.80;38.50
45803;DHT22;31504;51.716;9.184;2023-04-03T13:38:32;18.70;39.00
45803;DHT22;31504;51.716;9.184;2023-04-03T13:41:35;18.70;39.60
45803;DHT22;31504;51.716;9.184;2023-04-03T13:44:36;18.70;39.00
45803;DHT22;31504;51.716;9.184;2023-04-03T13:47:38;18.60;39.00
45803;DHT22;31504;51.716;9.184;2023-04-03T13:53:58;18.60;39.00
45803;DHT22;31504;51.716;9.184;2023-04-03T13:57:00;18.60;39.00
45803;DHT22;31504;51.716;9.184;2023-04-03T14:00:18;18.60;39.30
45803;DHT22;31504;51.716;9.184;2023-04-03T14:06:19;18.60;39.50
45803;DHT22;31504;51.716;9.184;2023-04-03T14:09:21;18.60;39.60
45803;DHT22;31504;51.716;9.184;2023-04-03T14:12:30;18.60;39.40
45803;DHT22;31504;51.716;9.184;2023-04-03T14:15:31;18.60;39.50
45803;DHT22;31504;51.716;9.184;2023-04-03T14:18:41;18.70;39.00
45803;DHT22;31504;51.716;9.184;2023-04-03T14:21:41;18.70;39.40
45803;DHT22;31504;51.716;9.184;2023-04-03T14:24:42;18.70;39.20
45803;DHT22;31504;51.716;9.184;2023-04-03T14:27:47;18.80;39.10
45803;DHT22;31504;51.716;9.184;2023-04-03T14:30:49;19.00;38.80
45803;DHT22;31504;51.716;9.184;2023-04-03T14:33:50;19.00;38.80
45803;DHT22;31504;51.716;9.184;2023-04-03T14:36:50;19.10;38.70
45803;DHT22;31504;51.716;9.184;2023-04-03T14:39:52;19.10;38.90
45803;DHT22;31504;51.716;9.184;2023-04-03T14:42:55;19.10;39.00
45803;DHT22;31504;51.716;9.184;2023-04-03T14:45:57;19.00;39.00
45803;DHT22;31504;51.716;9.184;2023-04-03T14:48:58;19.00;39.00
45803;DHT22;31504;51.716;9.184;2023-04-03T14:51:58;19.00;39.00
45803;DHT22;31504;51.716;9.184;2023-04-03T14:54:59;19.10;38.90
45803;DHT22;31504;51.716;9.184;2023-04-03T14:58:00;19.10;38.90
45803;DHT22;31504;51.716;9.184;2023-04-03T15:01:01;19.00;40.00
45803;DHT22;31504;51.716;9.184;2023-04-03T15:04:04;18.90;39.20
45803;DHT22;31504;51.716;9.184;2023-04-03T15:07:07;19.00;39.10
45803;DHT22;31504;51.716;9.184;2023-04-03T15:13:12;19.00;39.00
45803;DHT22;31504;51.716;9.184;2023-04-03T15:16:14;18.90;39.30
45803;DHT22;31504;51.716;9.184;2023-04-03T15:19:15;18.90;39.30
45803;DHT22;31504;51.716;9.184;2023-04-03T15:22:17;18.90;39.10
45803;DHT22;31504;51.716;9.184;2023-04-03T15:25:18;18.90;39.10
45803;DHT22;31504;51.716;9.184;2023-04-03T15:28:19;18.90;39.20
45803;DHT22;31504;51.716;9.184;2023-04-03T15:31:22;18.90;39.20
45803;DHT22;31504;51.716;9.184;2023-04-03T15:34:22;18.90;39.20
45803;DHT22;31504;51.716;9.184;2023-04-03T15:37:23;18.90;39.00
45803;DHT22;31504;51.716;9.184;2023-04-03T15:40:23;18.90;39.00
45803;DHT22;31504;51.716;9.184;2023-04-03T15:43:23;19.00;38.90
45803;DHT22;31504;51.716;9.184;2023-04-03T15:46:24;19.00;39.00
45803;DHT22;31504;51.716;9.184;2023-04-03T15:49:24;18.90;39.00
45803;DHT22;31504;51.716;9.184;2023-04-03T15:52:25;18.90;39.20
45803;DHT22;31504;51.716;9.184;2023-04-03T15:55:25;18.90;39.00
45803;DHT22;31504;51.716;9.184;2023-04-03T15:58:26;18.90;39.10
45803;DHT22;31504;51.716;9.184;2023-04-03T16:01:26;18.90;39.00
45803;DHT22;31504;51.716;9.184;2023-04-03T16:04:27;18.90;39.10
45803;DHT22;31504;51.716;9.184;2023-04-03T16:07:27;18.90;39.10
45803;DHT22;31504;51.716;9.184;2023-04-03T16:10:28;18.90;39.60
45803;DHT22;31504;51.716;9.184;2023-04-03T16:13:28;18.90;39.20
45803;DHT22;31504;51.716;9.184;2023-04-03T16:16:29;18.90;39.10
45803;DHT22;31504;51.716;9.184;2023-04-03T16:19:30;18.90;39.00
45803;DHT22;31504;51.716;9.184;2023-04-03T16:22:30;18.90;38.80
45803;DHT22;31504;51.716;9.184;2023-04-03T16:25:31;18.90;38.90
45803;DHT22;31504;51.716;9.184;2023-04-03T16:28:31;18.90;39.00
45803;DHT22;31504;51.716;9.184;2023-04-03T16:31:32;18.90;38.80
45803;DHT22;31504;51.716;9.184;2023-04-03T16:34:33;18.90;38.80
45803;DHT22;31504;51.716;9.184;2023-04-03T16:37:33;18.90;38.80
45803;DHT22;31504;51.716;9.184;2023-04-03T16:40:34;18.90;38.80
45803;DHT22;31504;51.716;9.184;2023-04-03T16:43:35;18.90;38.60
45803;DHT22;31504;51.716;9.184;2023-04-03T16:46:36;18.90;38.90
45803;DHT22;31504;51.716;9.184;2023-04-03T16:49:37;18.80;38.90
45803;DHT22;31504;51.716;9.184;2023-04-03T16:52:38;18.80;38.70
45803;DHT22;31504;51.716;9.184;2023-04-03T16:55:39;18.90;38.90
45803;DHT22;31504;51.716;9.184;2023-04-03T16:58:40;18.80;39.30
45803;DHT22;31504;51.716;9.184;2023-04-03T17:01:41;18.80;38.80
45803;DHT22;31504;51.716;9.184;2023-04-03T17:04:41;18.80;39.00
45803;DHT22;31504;51.716;9.184;2023-04-03T17:07:41;18.80;39.20
45803;DHT22;31504;51.716;9.184;2023-04-03T17:10:42;18.70;39.00
45803;DHT22;31504;51.716;9.184;2023-04-03T17:13:42;18.80;39.00
45803;DHT22;31504;51.716;9.184;2023-04-03T17:16:43;18.80;39.10
45803;DHT22;31504;51.716;9.184;2023-04-03T17:19:43;18.70;38.90
45803;DHT22;31504;51.716;9.184;2023-04-03T17:22:44;18.80;39.00
45803;DHT22;31504;51.716;9.184;2023-04-03T17:25:45;18.80;39.00
45803;DHT22;31504;51.716;9.184;2023-04-03T17:28:45;18.70;39.30
45803;DHT22;31504;51.716;9.184;2023-04-03T17:31:46;18.70;38.90
45803;DHT22;31504;51.716;9.184;2023-04-03T17:34:46;18.70;39.10
45803;DHT22;31504;51.716;9.184;2023-04-03T17:37:47;18.80;38.70
45803;DHT22;31504;51.716;9.184;2023-04-03T17:40:49;18.80;38.90
45803;DHT22;31504;51.716;9.184;2023-04-03T17:43:50;18.80;38.50
45803;DHT22;31504;51.716;9.184;2023-04-03T17:46:50;18.80;38.50
45803;DHT22;31504;51.716;9.184;2023-04-03T17:49:51;18.80;38.40
45803;DHT22;31504;51.716;9.184;2023-04-03T17:52:51;18.80;38.60
45803;DHT22;31504;51.716;9.184;2023-04-03T17:55:52;18.80;38.50
45803;DHT22;31504;51.716;9.184;2023-04-03T17:58:53;18.80;38.60
45803;DHT22;31504;51.716;9.184;2023-04-03T18:01:54;18.80;38.80
45803;DHT22;31504;51.716;9.184;2023-04-03T18:04:55;18.70;39.50
45803;DHT22;31504;51.716;9.184;2023-04-03T18:07:56;18.70;38.90
45803;DHT22;31504;51.716;9.184;2023-04-03T18:10:57;18.70;39.80
45803;DHT22;31504;51.716;9.184;2023-04-03T18:13:58;18.60;39.50
45803;DHT22;31504;51.716;9.184;2023-04-03T18:17:00;18.60;39.60
45803;DHT22;31504;51.716;9.184;2023-04-03T18:20:01;18.10;44.30
45803;DHT22;31504;51.716;9.184;2023-04-03T18:23:01;17.90;45.00
45803;DHT22;31504;51.716;9.184;2023-04-03T18:26:02;17.70;45.50
45803;DHT22;31504;51.716;9.184;2023-04-03T18:29:03;17.70;45.70
45803;DHT22;31504;51.716;9.184;2023-04-03T18:32:05;17.60;45.80
45803;DHT22;31504;51.716;9.184;2023-04-03T18:35:06;17.60;46.00
45803;DHT22;31504;51.716;9.184;2023-04-03T18:38:08;17.60;46.00
45803;DHT22;31504;51.716;9.184;2023-04-03T18:41:08;17.70;46.00
45803;DHT22;31504;51.716;9.184;2023-04-03T18:44:10;17.60;46.00
45803;DHT22;31504;51.716;9.184;2023-04-03T18:47:11;17.60;46.10
45803;DHT22;31504;51.716;9.184;2023-04-03T18:50:12;17.60;46.10
45803;DHT22;31504;51.716;9.184;2023-04-03T18:53:12;17.70;46.40
45803;DHT22;31504;51.716;9.184;2023-04-03T18:56:13;17.60;46.40
45803;DHT22;31504;51.716;9.184;2023-04-03T18:59:14;17.60;46.50
45803;DHT22;31504;51.716;9.184;2023-04-03T19:02:14;17.60;46.30
45803;DHT22;31504;51.716;9.184;2023-04-03T19:05:17;17.60;46.40
45803;DHT22;31504;51.716;9.184;2023-04-03T19:08:19;17.60;46.50
45803;DHT22;31504;51.716;9.184;2023-04-03T19:11:19;17.60;46.50
45803;DHT22;31504;51.716;9.184;2023-04-03T19:14:20;17.60;46.60
45803;DHT22;31504;51.716;9.184;2023-04-03T19:17:20;17.60;46.70
45803;DHT22;31504;51.716;9.184;2023-04-03T19:20:21;17.60;46.60
45803;DHT22;31504;51.716;9.184;2023-04-03T19:23:22;17.60;46.70
45803;DHT22;31504;51.716;9.184;2023-04-03T19:26:22;17.60;46.50
45803;DHT22;31504;51.716;9.184;2023-04-03T19:29:23;17.60;46.70
45803;DHT22;31504;51.716;9.184;2023-04-03T19:32:23;17.60;46.70
45803;DHT22;31504;51.716;9.184;2023-04-03T19:35:24;17.60;46.90
45803;DHT22;31504;51.716;9.184;2023-04-03T19:38:24;17.60;46.70
45803;DHT22;31504;51.716;9.184;2023-04-03T19:41:26;17.60;48.10
45803;DHT22;31504;51.716;9.184;2023-04-03T19:44:28;17.60;47.30
45803;DHT22;31504;51.716;9.184;2023-04-03T19:47:29;17.70;47.60
45803;DHT22;31504;51.716;9.184;2023-04-03T19:50:30;17.70;47.20
45803;DHT22;31504;51.716;9.184;2023-04-03T19:53:32;17.60;47.00
45803;DHT22;31504;51.716;9.184;2023-04-03T19:56:32;17.70;47.20
45803;DHT22;31504;51.716;9.184;2023-04-03T19:59:33;17.70;47.30
45803;DHT22;31504;51.716;9.184;2023-04-03T20:02:33;17.60;47.00
45803;DHT22;31504;51.716;9.184;2023-04-03T20:05:33;17.60;47.30
45803;DHT22;31504;51.716;9.184;2023-04-03T20:08:34;17.70;47.10
45803;DHT22;31504;51.716;9.184;2023-04-03T20:11:36;17.70;47.80
45803;DHT22;31504;51.716;9.184;2023-04-03T20:14:37;17.70;47.90
45803;DHT22;31504;51.716;9.184;2023-04-03T20:17:39;17.70;47.30
45803;DHT22;31504;51.716;9.184;2023-04-03T20:20:39;17.70;47.60